»·PEaware :: N35CF NONE-7S9

N35CF :: NONE-7S9

FLIGHT INFORMATION

Flight Status: Arrived
Operator: Privately registered:
United States
More flights under this callsign
Pilot: Todd C. (18613)
Aircraft: BEECH AIRCRAFT A90-E90 KING AIR
(BE9L)
More flights by this aircraft type
Origin: NONE
Destination: 7S9 Lenhardt
United States
More flights between these airports :: More routes between these airports
Route: +
File this flight plan on PilotEdge
Remarks:
Altitude:
(Current/Filed)
10,500ft
Speed:
(Current/Filed)
0kts
Departed: 21-May-18 03:27 PM
Arrived: 21-May-18 04:39 PM
Distance/Time
Traveled:
Not Available
Distance/Time
To Go:
Arrived

Flight Plot

Page will automatically refresh every two minutes.

Flight plan parsing failed; only flown route is shown


Map Options




Map Legend


Flown Route
Filed Route
Departure Airport
Arrival Airport
Navaid (VOR, NDB)
Fix

Horizontal Profiles

Position Reports

Time Latitude Longitude Heading Altitude Ground
Speed
21-May-18 15:26 44.905411 -116.559662 281 10518ft 226kts
21-May-18 15:27 44.917636 -116.646516 281 10518ft 226kts
21-May-18 15:28 44.929509 -116.731378 280 10525ft 226kts
21-May-18 15:29 44.941608 -116.818347 280 10527ft 226kts
21-May-18 15:30 44.953642 -116.905409 280 10525ft 226kts
21-May-18 15:31 44.965641 -116.992796 281 10515ft 227kts
21-May-18 15:32 44.977584 -117.080086 281 10505ft 226kts
21-May-18 15:33 44.989415 -117.167185 281 10499ft 225kts
21-May-18 15:34 45.001137 -117.254013 281 10499ft 225kts
21-May-18 15:35 45.012759 -117.340620 281 10499ft 225kts
21-May-18 15:36 45.024352 -117.427548 281 10499ft 225kts
21-May-18 15:37 45.025736 -117.512827 282 10500ft 224kts
21-May-18 15:38 45.033506 -117.600199 276 10499ft 225kts
21-May-18 15:39 45.038738 -117.686126 275 10709ft 217kts
21-May-18 15:40 45.043770 -117.773346 275 10521ft 229kts
21-May-18 15:41 45.048904 -117.863916 275 10186ft 233kts
21-May-18 15:42 45.054045 -117.955991 275 9734ft 237kts
21-May-18 15:43 45.058966 -118.045454 275 9288ft 238kts
21-May-18 15:44 45.064012 -118.138575 275 8840ft 238kts
21-May-18 15:45 45.068977 -118.231667 276 8502ft 234kts
21-May-18 15:46 45.073699 -118.321617 276 8498ft 226kts
21-May-18 15:47 45.078273 -118.409945 276 8498ft 224kts
21-May-18 15:48 45.082756 -118.497869 276 8499ft 224kts
21-May-18 15:49 45.087152 -118.585413 276 8628ft 217kts
21-May-18 15:50 45.090956 -118.662476 275 9436ft 196kts
21-May-18 15:51 45.094678 -118.738749 275 10094ft 193kts
21-May-18 15:52 45.098370 -118.815400 275 10496ft 203kts
21-May-18 15:53 45.102205 -118.896002 274 10496ft 215kts
21-May-18 15:54 45.106199 -118.981333 274 10494ft 217kts
21-May-18 15:55 45.110120 -119.066680 273 10491ft 217kts
21-May-18 15:56 45.113969 -119.151912 273 10481ft 217kts
21-May-18 15:57 45.117771 -119.237350 273 10470ft 217kts
21-May-18 15:58 45.120888 -119.308499 273 10463ft 217kts
21-May-18 15:59 45.124566 -119.393930 273 10463ft 217kts
21-May-18 16:00 45.128175 -119.479143 273 10463ft 217kts
21-May-18 16:01 45.131729 -119.564602 273 10462ft 217kts
21-May-18 16:02 45.135015 -119.645013 273 10462ft 217kts
21-May-18 16:03 45.138358 -119.728323 272 10463ft 217kts
21-May-18 16:04 45.141734 -119.813979 272 10463ft 217kts
21-May-18 16:05 45.145030 -119.899262 272 10463ft 217kts
21-May-18 16:06 45.148271 -119.984763 272 10463ft 217kts
21-May-18 16:07 45.151431 -120.070155 273 10463ft 217kts
21-May-18 16:08 45.154550 -120.155445 273 10463ft 216kts
21-May-18 16:09 45.157577 -120.240278 272 10463ft 215kts
21-May-18 16:10 45.160540 -120.325188 272 10463ft 215kts
21-May-18 16:11 45.163406 -120.409778 274 10449ft 216kts
21-May-18 16:12 45.166270 -120.494774 274 10445ft 216kts
21-May-18 16:13 45.169041 -120.579564 274 10445ft 216kts
21-May-18 16:14 45.171690 -120.662398 273 10445ft 216kts
21-May-18 16:15 45.174342 -120.747407 273 10445ft 216kts
21-May-18 16:16 45.176937 -120.832553 273 10445ft 216kts
21-May-18 16:17 45.179465 -120.917598 273 10445ft 216kts
21-May-18 16:18 45.181935 -121.002462 272 10445ft 216kts
21-May-18 16:19 45.184335 -121.087363 271 10444ft 215kts
21-May-18 16:20 45.186672 -121.172693 271 10444ft 217kts
21-May-18 16:21 45.188957 -121.258334 271 10444ft 218kts
21-May-18 16:22 45.191203 -121.344676 271 10444ft 219kts
21-May-18 16:23 45.193381 -121.430955 271 10444ft 219kts
21-May-18 16:24 45.195495 -121.517306 271 10444ft 219kts
21-May-18 16:25 45.197548 -121.603812 271 10444ft 219kts
21-May-18 16:26 45.199478 -121.687880 270 10445ft 219kts
21-May-18 16:27 45.201394 -121.774332 271 10479ft 219kts
21-May-18 16:28 45.203311 -121.863208 271 10062ft 234kts
21-May-18 16:29 45.205271 -121.957669 271 9308ft 243kts
21-May-18 16:30 45.207182 -122.053976 271 8592ft 244kts
21-May-18 16:31 45.208945 -122.146695 271 7922ft 243kts
21-May-18 16:32 45.210689 -122.242596 271 7243ft 242kts
21-May-18 16:33 45.212341 -122.337802 271 6626ft 241kts
21-May-18 16:34 45.213901 -122.432235 271 6081ft 238kts
21-May-18 16:35 45.215356 -122.524983 271 5492ft 227kts
21-May-18 16:36 45.216257 -122.614273 263 4376ft 231kts
21-May-18 16:37 45.192785 -122.695574 250 2110ft 218kts
21-May-18 16:38 45.176850 -122.769432 230 645ft 162kts
21-May-18 16:39 45.179493 -122.745677 39 168ft 39kts
21-May-18 16:40 45.179746 -122.745377 42 168ft 0kts
21-May-18 16:41 45.179746 -122.745377 42 168ft 0kts
21-May-18 16:42 45.179746 -122.745377 42 168ft 0kts
21-May-18 16:43 45.179746 -122.745377 42 168ft 0kts
21-May-18 16:44 45.178603 -122.746722 40 168ft 0kts
21-May-18 16:45 45.178603 -122.746722 40 168ft 0kts
21-May-18 16:46 45.178603 -122.746722 40 168ft 0kts
21-May-18 16:47 45.177222 -122.731120 183 922ft 123kts
21-May-18 16:48 45.165189 -122.780477 285 2637ft 165kts
21-May-18 16:49 45.197583 -122.816942 349 3978ft 162kts
21-May-18 16:50 45.241966 -122.815354 20 4038ft 163kts
21-May-18 16:51 45.280861 -122.783469 32 4142ft 161kts
21-May-18 16:52 45.314591 -122.741815 41 4212ft 161kts
21-May-18 16:53 45.348730 -122.699727 36 4059ft 171kts

Navigation Log

Ident Type
Flight plan parsing failed, navigation log unavailable